sensor_id;sensor_type;location;lat;lon;timestamp;pressure;altitude;pressure_sealevel;temperature;humidity
16821;BME280;8527;49.740;6.604;2023-01-28T00:03:58;100637.72;;;2.72;100.00
16821;BME280;8527;49.740;6.604;2023-01-28T00:08:56;100636.28;;;2.80;100.00
16821;BME280;8527;49.740;6.604;2023-01-28T00:13:58;100641.06;;;2.74;100.00
16821;BME280;8527;49.740;6.604;2023-01-28T00:19:02;100633.41;;;2.71;100.00
16821;BME280;8527;49.740;6.604;2023-01-28T00:24:01;100640.31;;;2.72;99.62
16821;BME280;8527;49.740;6.604;2023-01-28T00:29:01;100639.59;;;2.70;99.05
16821;BME280;8527;49.740;6.604;2023-01-28T00:34:02;100632.53;;;2.70;98.69
16821;BME280;8527;49.740;6.604;2023-01-28T00:39:01;100637.03;;;2.68;98.51
16821;BME280;8527;49.740;6.604;2023-01-28T00:44:00;100635.16;;;2.70;98.17
16821;BME280;8527;49.740;6.604;2023-01-28T00:48:58;100642.19;;;2.70;97.85
16821;BME280;8527;49.740;6.604;2023-01-28T00:53:59;100643.81;;;2.72;97.78
16821;BME280;8527;49.740;6.604;2023-01-28T00:58:58;100649.78;;;2.74;98.89
16821;BME280;8527;49.740;6.604;2023-01-28T01:03:57;100634.44;;;2.68;97.98
16821;BME280;8527;49.740;6.604;2023-01-28T01:09:04;100636.03;;;2.71;97.34
16821;BME280;8527;49.740;6.604;2023-01-28T01:14:02;100635.38;;;2.67;97.07
16821;BME280;8527;49.740;6.604;2023-01-28T01:19:04;100631.16;;;2.64;97.50
16821;BME280;8527;49.740;6.604;2023-01-28T01:24:09;100636.50;;;2.63;98.22
16821;BME280;8527;49.740;6.604;2023-01-28T01:29:09;100649.81;;;2.60;99.07
16821;BME280;8527;49.740;6.604;2023-01-28T01:34:08;100644.91;;;2.53;100.00
16821;BME280;8527;49.740;6.604;2023-01-28T01:39:12;100654.56;;;2.53;100.00
16821;BME280;8527;49.740;6.604;2023-01-28T01:44:55;100654.66;;;2.51;100.00
16821;BME280;8527;49.740;6.604;2023-01-28T01:49:57;100657.09;;;2.55;100.00
16821;BME280;8527;49.740;6.604;2023-01-28T01:55:03;100654.56;;;2.53;100.00
16821;BME280;8527;49.740;6.604;2023-01-28T02:00:07;100660.56;;;2.55;100.00
16821;BME280;8527;49.740;6.604;2023-01-28T02:05:07;100656.25;;;2.54;100.00
16821;BME280;8527;49.740;6.604;2023-01-28T02:10:10;100656.63;;;2.48;100.00
16821;BME280;8527;49.740;6.604;2023-01-28T02:15:12;100652.50;;;2.44;99.92
16821;BME280;8527;49.740;6.604;2023-01-28T02:20:20;100654.28;;;2.43;100.00
16821;BME280;8527;49.740;6.604;2023-01-28T02:25:33;100656.41;;;2.36;100.00
16821;BME280;8527;49.740;6.604;2023-01-28T02:30:41;100657.09;;;2.40;100.00
16821;BME280;8527;49.740;6.604;2023-01-28T02:35:47;100658.84;;;2.39;100.00
16821;BME280;8527;49.740;6.604;2023-01-28T02:40:55;100650.25;;;2.37;100.00
16821;BME280;8527;49.740;6.604;2023-01-28T02:46:32;100646.69;;;2.38;100.00
16821;BME280;8527;49.740;6.604;2023-01-28T02:51:55;100646.41;;;2.43;100.00
16821;BME280;8527;49.740;6.604;2023-01-28T02:57:02;100653.13;;;2.33;100.00
16821;BME280;8527;49.740;6.604;2023-01-28T03:02:12;100651.38;;;2.33;100.00
16821;BME280;8527;49.740;6.604;2023-01-28T03:07:19;100662.31;;;2.40;100.00
16821;BME280;8527;49.740;6.604;2023-01-28T03:12:20;100661.84;;;2.33;100.00
16821;BME280;8527;49.740;6.604;2023-01-28T03:17:38;100662.50;;;2.37;99.15
16821;BME280;8527;49.740;6.604;2023-01-28T03:22:54;100663.53;;;2.34;99.15
16821;BME280;8527;49.740;6.604;2023-01-28T03:28:13;100668.78;;;2.34;98.57
16821;BME280;8527;49.740;6.604;2023-01-28T03:33:29;100672.72;;;2.42;98.66
16821;BME280;8527;49.740;6.604;2023-01-28T03:38:41;100673.00;;;2.37;98.84
16821;BME280;8527;49.740;6.604;2023-01-28T03:43:43;100674.47;;;2.41;98.66
16821;BME280;8527;49.740;6.604;2023-01-28T03:48:44;100680.56;;;2.42;97.37
16821;BME280;8527;49.740;6.604;2023-01-28T03:53:46;100693.66;;;2.42;97.58
16821;BME280;8527;49.740;6.604;2023-01-28T03:58:44;100691.88;;;2.42;97.82
16821;BME280;8527;49.740;6.604;2023-01-28T04:03:50;100701.69;;;2.38;96.66
16821;BME280;8527;49.740;6.604;2023-01-28T04:08:49;100697.22;;;2.41;97.01
16821;BME280;8527;49.740;6.604;2023-01-28T04:13:54;100694.59;;;2.41;97.14
16821;BME280;8527;49.740;6.604;2023-01-28T04:18:55;100697.31;;;2.39;96.02
16821;BME280;8527;49.740;6.604;2023-01-28T04:23:53;100696.63;;;2.35;95.40
16821;BME280;8527;49.740;6.604;2023-01-28T04:28:57;100701.88;;;2.35;95.08
16821;BME280;8527;49.740;6.604;2023-01-28T04:33:58;100703.38;;;2.39;94.93
16821;BME280;8527;49.740;6.604;2023-01-28T04:38:57;100710.19;;;2.42;94.96
16821;BME280;8527;49.740;6.604;2023-01-28T04:43:55;100714.88;;;2.37;95.08
16821;BME280;8527;49.740;6.604;2023-01-28T04:48:54;100713.09;;;2.37;95.28
16821;BME280;8527;49.740;6.604;2023-01-28T04:53:55;100727.78;;;2.40;94.55
16821;BME280;8527;49.740;6.604;2023-01-28T04:58:59;100729.47;;;2.41;94.96
16821;BME280;8527;49.740;6.604;2023-01-28T05:03:57;100737.22;;;2.28;94.68
16821;BME280;8527;49.740;6.604;2023-01-28T05:09:03;100730.19;;;2.29;94.26
16821;BME280;8527;49.740;6.604;2023-01-28T05:14:11;100734.22;;;2.34;93.50
16821;BME280;8527;49.740;6.604;2023-01-28T05:19:09;100733.38;;;2.34;93.52
16821;BME280;8527;49.740;6.604;2023-01-28T05:24:12;100731.88;;;2.30;92.34
16821;BME280;8527;49.740;6.604;2023-01-28T05:29:11;100737.72;;;2.35;92.34
16821;BME280;8527;49.740;6.604;2023-01-28T05:34:12;100741.53;;;2.29;92.29
16821;BME280;8527;49.740;6.604;2023-01-28T05:39:13;100734.59;;;2.28;92.00
16821;BME280;8527;49.740;6.604;2023-01-28T05:44:11;100743.97;;;2.32;91.33
16821;BME280;8527;49.740;6.604;2023-01-28T05:49:15;100745.44;;;2.36;92.04
16821;BME280;8527;49.740;6.604;2023-01-28T05:54:16;100748.94;;;2.37;91.41
16821;BME280;8527;49.740;6.604;2023-01-28T05:59:15;100756.38;;;2.29;91.56
16821;BME280;8527;49.740;6.604;2023-01-28T06:04:15;100762.63;;;2.26;92.27
16821;BME280;8527;49.740;6.604;2023-01-28T06:09:25;100765.16;;;2.28;92.34
16821;BME280;8527;49.740;6.604;2023-01-28T06:14:26;100769.22;;;2.33;92.62
16821;BME280;8527;49.740;6.604;2023-01-28T06:19:25;100765.91;;;2.30;92.87
16821;BME280;8527;49.740;6.604;2023-01-28T06:24:26;100769.66;;;2.25;92.66
16821;BME280;8527;49.740;6.604;2023-01-28T06:29:24;100766.94;;;2.27;92.19
16821;BME280;8527;49.740;6.604;2023-01-28T06:34:25;100780.22;;;2.24;92.34
16821;BME280;8527;49.740;6.604;2023-01-28T06:39:30;100789.00;;;2.23;92.71
16821;BME280;8527;49.740;6.604;2023-01-28T06:44:28;100793.47;;;2.21;92.77
16821;BME280;8527;49.740;6.604;2023-01-28T06:49:27;100800.59;;;2.19;92.24
16821;BME280;8527;49.740;6.604;2023-01-28T06:54:25;100798.97;;;2.16;92.40
16821;BME280;8527;49.740;6.604;2023-01-28T06:59:34;100806.91;;;2.15;92.25
16821;BME280;8527;49.740;6.604;2023-01-28T07:04:32;100820.00;;;2.15;92.68
16821;BME280;8527;49.740;6.604;2023-01-28T07:09:31;100819.91;;;2.16;92.56
16821;BME280;8527;49.740;6.604;2023-01-28T07:14:32;100826.09;;;2.15;92.90
16821;BME280;8527;49.740;6.604;2023-01-28T07:19:31;100831.41;;;2.14;92.78
16821;BME280;8527;49.740;6.604;2023-01-28T07:24:30;100831.69;;;2.09;92.83
16821;BME280;8527;49.740;6.604;2023-01-28T07:29:31;100836.81;;;2.10;93.19
16821;BME280;8527;49.740;6.604;2023-01-28T07:34:30;100846.16;;;2.15;93.13
16821;BME280;8527;49.740;6.604;2023-01-28T07:39:28;100840.19;;;2.13;92.88
16821;BME280;8527;49.740;6.604;2023-01-28T07:44:27;100835.63;;;2.16;92.90
16821;BME280;8527;49.740;6.604;2023-01-28T07:49:32;100841.28;;;2.24;92.23
16821;BME280;8527;49.740;6.604;2023-01-28T07:54:32;100845.91;;;2.35;91.93
16821;BME280;8527;49.740;6.604;2023-01-28T07:59:32;100838.41;;;2.29;91.66
16821;BME280;8527;49.740;6.604;2023-01-28T08:04:34;100844.22;;;2.34;92.00
16821;BME280;8527;49.740;6.604;2023-01-28T08:09:37;100839.97;;;2.32;91.61
16821;BME280;8527;49.740;6.604;2023-01-28T08:14:35;100834.09;;;2.28;91.88
16821;BME280;8527;49.740;6.604;2023-01-28T08:19:36;100838.56;;;2.26;92.13
16821;BME280;8527;49.740;6.604;2023-01-28T08:24:35;100837.53;;;2.29;92.58
16821;BME280;8527;49.740;6.604;2023-01-28T08:29:33;100841.06;;;2.44;92.99
16821;BME280;8527;49.740;6.604;2023-01-28T08:34:32;100840.69;;;2.50;92.36
16821;BME280;8527;49.740;6.604;2023-01-28T08:39:33;100842.06;;;2.41;92.84
16821;BME280;8527;49.740;6.604;2023-01-28T08:44:31;100856.53;;;2.48;92.58
16821;BME280;8527;49.740;6.604;2023-01-28T08:49:30;100845.56;;;2.42;92.33
16821;BME280;8527;49.740;6.604;2023-01-28T08:54:28;100852.22;;;2.47;93.12
16821;BME280;8527;49.740;6.604;2023-01-28T08:59:29;100866.31;;;2.45;92.35
16821;BME280;8527;49.740;6.604;2023-01-28T09:04:28;100868.13;;;2.59;92.19
16821;BME280;8527;49.740;6.604;2023-01-28T09:09:26;100868.75;;;2.48;92.09
16821;BME280;8527;49.740;6.604;2023-01-28T09:14:25;100875.69;;;2.49;91.78
16821;BME280;8527;49.740;6.604;2023-01-28T09:19:26;100868.41;;;2.54;92.61
16821;BME280;8527;49.740;6.604;2023-01-28T09:24:24;100881.59;;;2.52;92.66
16821;BME280;8527;49.740;6.604;2023-01-28T09:29:22;100885.41;;;2.47;91.59
16821;BME280;8527;49.740;6.604;2023-01-28T09:34:21;100897.34;;;2.36;91.69
16821;BME280;8527;49.740;6.604;2023-01-28T09:39:25;100901.38;;;2.42;91.81
16821;BME280;8527;49.740;6.604;2023-01-28T09:44:34;100907.63;;;2.39;91.45
16821;BME280;8527;49.740;6.604;2023-01-28T09:49:41;100912.97;;;2.38;92.28
16821;BME280;8527;49.740;6.604;2023-01-28T09:54:45;100910.16;;;2.41;91.80
16821;BME280;8527;49.740;6.604;2023-01-28T09:59:44;100924.38;;;2.37;92.20
16821;BME280;8527;49.740;6.604;2023-01-28T10:04:52;100922.09;;;2.31;90.83
16821;BME280;8527;49.740;6.604;2023-01-28T10:10:00;100927.56;;;2.42;90.97
16821;BME280;8527;49.740;6.604;2023-01-28T10:15:16;100918.09;;;2.39;90.62
16821;BME280;8527;49.740;6.604;2023-01-28T10:20:22;100930.19;;;2.26;89.96
16821;BME280;8527;49.740;6.604;2023-01-28T10:25:29;100931.31;;;2.38;89.92
16821;BME280;8527;49.740;6.604;2023-01-28T10:30:31;100937.97;;;2.44;89.65
16821;BME280;8527;49.740;6.604;2023-01-28T10:35:34;100934.59;;;2.42;89.09
16821;BME280;8527;49.740;6.604;2023-01-28T10:40:39;100926.19;;;2.51;89.51
16821;BME280;8527;49.740;6.604;2023-01-28T10:45:44;100929.00;;;2.48;88.01
16821;BME280;8527;49.740;6.604;2023-01-28T10:50:50;100936.59;;;2.52;87.66
16821;BME280;8527;49.740;6.604;2023-01-28T10:55:57;100935.34;;;2.60;85.46
16821;BME280;8527;49.740;6.604;2023-01-28T11:01:00;100930.72;;;2.79;84.98
16821;BME280;8527;49.740;6.604;2023-01-28T11:06:01;100944.97;;;2.59;83.71
16821;BME280;8527;49.740;6.604;2023-01-28T11:11:12;100927.56;;;2.42;82.92
16821;BME280;8527;49.740;6.604;2023-01-28T11:16:15;100938.66;;;2.47;82.30
16821;BME280;8527;49.740;6.604;2023-01-28T11:21:15;100941.56;;;2.73;82.23
16821;BME280;8527;49.740;6.604;2023-01-28T11:26:21;100943.59;;;2.68;81.29
16821;BME280;8527;49.740;6.604;2023-01-28T11:31:22;100935.06;;;2.64;82.42
16821;BME280;8527;49.740;6.604;2023-01-28T11:36:25;100931.25;;;2.70;82.05
16821;BME280;8527;49.740;6.604;2023-01-28T11:41:30;100921.69;;;2.69;81.33
16821;BME280;8527;49.740;6.604;2023-01-28T11:46:41;100929.09;;;2.77;81.61
16821;BME280;8527;49.740;6.604;2023-01-28T11:51:50;100925.88;;;2.88;80.96
16821;BME280;8527;49.740;6.604;2023-01-28T11:57:00;100929.25;;;2.59;78.20
16821;BME280;8527;49.740;6.604;2023-01-28T12:02:12;100913.69;;;2.56;76.37
16821;BME280;8527;49.740;6.604;2023-01-28T12:07:31;100922.13;;;2.61;74.98
16821;BME280;8527;49.740;6.604;2023-01-28T12:12:53;100905.91;;;2.71;76.50
16821;BME280;8527;49.740;6.604;2023-01-28T12:18:08;100907.66;;;2.70;76.95
16821;BME280;8527;49.740;6.604;2023-01-28T12:23:33;100896.88;;;2.60;76.61
16821;BME280;8527;49.740;6.604;2023-01-28T12:28:56;100904.06;;;2.57;77.74
16821;BME280;8527;49.740;6.604;2023-01-28T12:34:19;100911.84;;;2.58;78.97
16821;BME280;8527;49.740;6.604;2023-01-28T12:39:29;100898.91;;;2.55;78.14
16821;BME280;8527;49.740;6.604;2023-01-28T12:44:38;100889.38;;;2.54;77.95
16821;BME280;8527;49.740;6.604;2023-01-28T12:49:41;100885.50;;;2.76;78.81
16821;BME280;8527;49.740;6.604;2023-01-28T12:54:46;100875.16;;;2.58;79.42
16821;BME280;8527;49.740;6.604;2023-01-28T12:59:57;100883.03;;;2.42;78.09
16821;BME280;8527;49.740;6.604;2023-01-28T13:05:04;100892.34;;;2.48;77.65
16821;BME280;8527;49.740;6.604;2023-01-28T13:10:10;100901.38;;;2.42;76.69
16821;BME280;8527;49.740;6.604;2023-01-28T13:15:19;100899.84;;;2.54;75.28
16821;BME280;8527;49.740;6.604;2023-01-28T13:20:35;100892.00;;;2.54;75.74
16821;BME280;8527;49.740;6.604;2023-01-28T13:25:35;100901.13;;;2.77;75.41
16821;BME280;8527;49.740;6.604;2023-01-28T13:30:47;100901.47;;;2.71;71.69
16821;BME280;8527;49.740;6.604;2023-01-28T13:35:52;100904.97;;;2.72;74.66
16821;BME280;8527;49.740;6.604;2023-01-28T13:40:54;100911.09;;;2.87;74.87
16821;BME280;8527;49.740;6.604;2023-01-28T13:46:00;100914.72;;;2.84;75.06
16821;BME280;8527;49.740;6.604;2023-01-28T13:50:59;100918.50;;;2.64;74.84
16821;BME280;8527;49.740;6.604;2023-01-28T13:56:02;100917.91;;;2.59;72.76
16821;BME280;8527;49.740;6.604;2023-01-28T14:01:35;100932.97;;;2.55;72.40
16821;BME280;8527;49.740;6.604;2023-01-28T14:07:02;100939.03;;;2.72;72.53
16821;BME280;8527;49.740;6.604;2023-01-28T14:12:31;100946.31;;;2.50;73.39
16821;BME280;8527;49.740;6.604;2023-01-28T14:17:41;100948.19;;;2.32;71.87
16821;BME280;8527;49.740;6.604;2023-01-28T14:22:41;100944.47;;;2.52;71.92
16821;BME280;8527;49.740;6.604;2023-01-28T14:27:43;100939.28;;;2.67;71.23
16821;BME280;8527;49.740;6.604;2023-01-28T14:32:48;100939.03;;;2.56;70.43
16821;BME280;8527;49.740;6.604;2023-01-28T14:37:48;100941.34;;;2.46;70.60
16821;BME280;8527;49.740;6.604;2023-01-28T14:42:49;100931.13;;;2.41;70.64
16821;BME280;8527;49.740;6.604;2023-01-28T14:48:06;100933.41;;;2.47;71.16
16821;BME280;8527;49.740;6.604;2023-01-28T14:53:28;100948.00;;;2.51;70.37
16821;BME280;8527;49.740;6.604;2023-01-28T14:58:30;100934.50;;;2.43;70.50
16821;BME280;8527;49.740;6.604;2023-01-28T15:03:32;100944.66;;;2.17;71.78
16821;BME280;8527;49.740;6.604;2023-01-28T15:08:34;100936.38;;;2.25;72.51
16821;BME280;8527;49.740;6.604;2023-01-28T15:13:36;100922.19;;;2.29;72.32
16821;BME280;8527;49.740;6.604;2023-01-28T15:18:41;100920.75;;;2.23;72.26
16821;BME280;8527;49.740;6.604;2023-01-28T15:23:41;100926.50;;;2.14;72.04
16821;BME280;8527;49.740;6.604;2023-01-28T15:28:42;100941.63;;;2.09;72.07
16821;BME280;8527;49.740;6.604;2023-01-28T15:33:44;100931.19;;;1.91;71.08
16821;BME280;8527;49.740;6.604;2023-01-28T15:38:42;100935.09;;;2.00;71.71
16821;BME280;8527;49.740;6.604;2023-01-28T15:43:46;100935.75;;;1.88;71.33
16821;BME280;8527;49.740;6.604;2023-01-28T15:48:56;100923.78;;;1.83;71.58
16821;BME280;8527;49.740;6.604;2023-01-28T15:54:02;100920.16;;;1.86;71.25
16821;BME280;8527;49.740;6.604;2023-01-28T15:59:16;100928.72;;;1.72;71.24
16821;BME280;8527;49.740;6.604;2023-01-28T16:04:24;100957.50;;;1.72;72.10
16821;BME280;8527;49.740;6.604;2023-01-28T16:09:28;100956.56;;;1.73;72.37
16821;BME280;8527;49.740;6.604;2023-01-28T16:14:30;100964.53;;;1.72;72.23
16821;BME280;8527;49.740;6.604;2023-01-28T16:19:37;100977.50;;;1.73;72.55
16821;BME280;8527;49.740;6.604;2023-01-28T16:24:47;100994.19;;;1.71;73.40
16821;BME280;8527;49.740;6.604;2023-01-28T16:29:46;100982.84;;;1.72;73.06
16821;BME280;8527;49.740;6.604;2023-01-28T16:34:53;100982.97;;;1.68;73.17
16821;BME280;8527;49.740;6.604;2023-01-28T16:39:52;100979.53;;;1.68;73.40
16821;BME280;8527;49.740;6.604;2023-01-28T16:44:51;100982.75;;;1.73;74.07
16821;BME280;8527;49.740;6.604;2023-01-28T16:49:51;100996.06;;;1.68;73.63
16821;BME280;8527;49.740;6.604;2023-01-28T16:54:52;100986.22;;;1.74;73.95
16821;BME280;8527;49.740;6.604;2023-01-28T16:59:54;100988.19;;;1.52;73.34
16821;BME280;8527;49.740;6.604;2023-01-28T17:04:58;100982.44;;;1.62;73.17
16821;BME280;8527;49.740;6.604;2023-01-28T17:09:56;100985.47;;;1.54;73.17
16821;BME280;8527;49.740;6.604;2023-01-28T17:14:55;100987.91;;;1.57;73.85
16821;BME280;8527;49.740;6.604;2023-01-28T17:19:56;100980.34;;;1.52;73.22
16821;BME280;8527;49.740;6.604;2023-01-28T17:24:54;100967.41;;;1.49;73.45
16821;BME280;8527;49.740;6.604;2023-01-28T17:29:53;100964.88;;;1.48;73.87
16821;BME280;8527;49.740;6.604;2023-01-28T17:34:51;100974.81;;;1.41;73.06
16821;BME280;8527;49.740;6.604;2023-01-28T17:39:52;100971.28;;;1.42;74.32
16821;BME280;8527;49.740;6.604;2023-01-28T17:44:51;100985.16;;;1.43;73.85
16821;BME280;8527;49.740;6.604;2023-01-28T17:49:51;101003.97;;;1.33;75.61
16821;BME280;8527;49.740;6.604;2023-01-28T17:54:52;101010.63;;;1.39;75.04
16821;BME280;8527;49.740;6.604;2023-01-28T17:59:50;101026.09;;;1.26;75.73
16821;BME280;8527;49.740;6.604;2023-01-28T18:04:49;101031.00;;;1.32;75.51
16821;BME280;8527;49.740;6.604;2023-01-28T18:09:47;101052.47;;;1.39;76.42
16821;BME280;8527;49.740;6.604;2023-01-28T18:14:49;101067.38;;;1.19;75.68
16821;BME280;8527;49.740;6.604;2023-01-28T18:19:48;101079.25;;;1.26;75.33
16821;BME280;8527;49.740;6.604;2023-01-28T18:24:47;101075.69;;;1.28;75.99
16821;BME280;8527;49.740;6.604;2023-01-28T18:29:50;101098.97;;;1.32;75.33
16821;BME280;8527;49.740;6.604;2023-01-28T18:34:48;101105.13;;;1.31;75.67
16821;BME280;8527;49.740;6.604;2023-01-28T18:39:49;101098.69;;;1.21;74.50
16821;BME280;8527;49.740;6.604;2023-01-28T18:44:50;101111.75;;;1.21;75.08
16821;BME280;8527;49.740;6.604;2023-01-28T18:49:48;101095.50;;;1.14;75.30
16821;BME280;8527;49.740;6.604;2023-01-28T18:54:46;101099.13;;;1.11;74.40
16821;BME280;8527;49.740;6.604;2023-01-28T18:59:46;101090.34;;;1.12;75.48
16821;BME280;8527;49.740;6.604;2023-01-28T19:04:47;101092.41;;;1.06;74.74
16821;BME280;8527;49.740;6.604;2023-01-28T19:09:45;101085.06;;;1.14;75.61
16821;BME280;8527;49.740;6.604;2023-01-28T19:14:47;101097.47;;;1.09;75.47
16821;BME280;8527;49.740;6.604;2023-01-28T19:19:48;101107.22;;;1.05;75.04
16821;BME280;8527;49.740;6.604;2023-01-28T19:24:47;101114.53;;;0.79;75.44
16821;BME280;8527;49.740;6.604;2023-01-28T19:29:45;101120.88;;;0.93;75.98
16821;BME280;8527;49.740;6.604;2023-01-28T19:34:43;101124.41;;;0.92;76.30
16821;BME280;8527;49.740;6.604;2023-01-28T19:39:44;101108.66;;;0.93;76.18
16821;BME280;8527;49.740;6.604;2023-01-28T19:44:43;101114.16;;;0.87;76.26
16821;BME280;8527;49.740;6.604;2023-01-28T19:49:41;101109.41;;;0.78;75.75
16821;BME280;8527;49.740;6.604;2023-01-28T19:54:45;101112.69;;;0.62;75.99
16821;BME280;8527;49.740;6.604;2023-01-28T19:59:44;101105.31;;;0.72;75.62
16821;BME280;8527;49.740;6.604;2023-01-28T20:04:46;101116.66;;;0.71;75.49
16821;BME280;8527;49.740;6.604;2023-01-28T20:09:47;101119.13;;;0.74;75.31
16821;BME280;8527;49.740;6.604;2023-01-28T20:14:46;101126.25;;;0.70;75.58
16821;BME280;8527;49.740;6.604;2023-01-28T20:19:44;101122.38;;;0.60;75.97
16821;BME280;8527;49.740;6.604;2023-01-28T20:24:43;101129.56;;;0.55;76.14
16821;BME280;8527;49.740;6.604;2023-01-28T20:29:46;101138.19;;;0.57;76.43
16821;BME280;8527;49.740;6.604;2023-01-28T20:34:45;101121.94;;;0.50;76.91
16821;BME280;8527;49.740;6.604;2023-01-28T20:39:44;101119.53;;;0.46;77.57
16821;BME280;8527;49.740;6.604;2023-01-28T20:44:46;101124.47;;;0.33;76.85
16821;BME280;8527;49.740;6.604;2023-01-28T20:49:45;101120.44;;;0.45;77.58
16821;BME280;8527;49.740;6.604;2023-01-28T20:54:43;101126.78;;;0.39;76.92
16821;BME280;8527;49.740;6.604;2023-01-28T20:59:42;101148.22;;;0.26;76.02
16821;BME280;8527;49.740;6.604;2023-01-28T21:04:43;101143.53;;;0.14;76.06
16821;BME280;8527;49.740;6.604;2023-01-28T21:09:44;101144.31;;;0.16;75.97
16821;BME280;8527;49.740;6.604;2023-01-28T21:14:43;101153.72;;;0.20;76.66
16821;BME280;8527;49.740;6.604;2023-01-28T21:19:46;101145.16;;;0.17;76.27
16821;BME280;8527;49.740;6.604;2023-01-28T21:24:44;101146.13;;;0.14;76.34
16821;BME280;8527;49.740;6.604;2023-01-28T21:29:48;101144.88;;;0.23;76.41
16821;BME280;8527;49.740;6.604;2023-01-28T21:34:49;101128.97;;;0.29;76.52
16821;BME280;8527;49.740;6.604;2023-01-28T21:39:48;101147.50;;;0.23;76.66
16821;BME280;8527;49.740;6.604;2023-01-28T21:44:46;101131.53;;;0.10;77.13
16821;BME280;8527;49.740;6.604;2023-01-28T21:49:45;101129.56;;;0.15;77.47
16821;BME280;8527;49.740;6.604;2023-01-28T21:54:46;101122.41;;;0.20;77.55
16821;BME280;8527;49.740;6.604;2023-01-28T21:59:44;101122.59;;;0.16;77.54
16821;BME280;8527;49.740;6.604;2023-01-28T22:04:44;101124.91;;;0.22;76.56
16821;BME280;8527;49.740;6.604;2023-01-28T22:09:49;101124.88;;;0.23;76.60
16821;BME280;8527;49.740;6.604;2023-01-28T22:14:53;101133.44;;;0.06;76.80
16821;BME280;8527;49.740;6.604;2023-01-28T22:19:55;101135.31;;;0.03;77.14
16821;BME280;8527;49.740;6.604;2023-01-28T22:24:56;101127.69;;;-0.02;77.13
16821;BME280;8527;49.740;6.604;2023-01-28T22:29:55;101123.72;;;0.10;77.38
16821;BME280;8527;49.740;6.604;2023-01-28T22:34:53;101119.59;;;0.04;76.98
16821;BME280;8527;49.740;6.604;2023-01-28T22:39:52;101122.22;;;0.04;78.24
16821;BME280;8527;49.740;6.604;2023-01-28T22:44:53;101109.59;;;0.14;77.35
16821;BME280;8527;49.740;6.604;2023-01-28T22:49:51;101113.72;;;0.20;77.18
16821;BME280;8527;49.740;6.604;2023-01-28T22:54:50;101104.38;;;0.14;77.19
16821;BME280;8527;49.740;6.604;2023-01-28T22:59:48;101094.88;;;0.13;77.35
16821;BME280;8527;49.740;6.604;2023-01-28T23:04:49;101106.22;;;0.12;77.52
16821;BME280;8527;49.740;6.604;2023-01-28T23:09:50;101107.09;;;-0.08;78.49
16821;BME280;8527;49.740;6.604;2023-01-28T23:14:48;101094.44;;;0.03;78.45
16821;BME280;8527;49.740;6.604;2023-01-28T23:20:03;101095.47;;;-0.01;77.99
16821;BME280;8527;49.740;6.604;2023-01-28T23:25:14;101097.47;;;0.13;78.24
16821;BME280;8527;49.740;6.604;2023-01-28T23:30:13;101105.59;;;0.07;77.64
16821;BME280;8527;49.740;6.604;2023-01-28T23:35:22;101093.66;;;0.01;77.84
16821;BME280;8527;49.740;6.604;2023-01-28T23:40:23;101092.25;;;0.13;78.29
16821;BME280;8527;49.740;6.604;2023-01-28T23:45:25;101087.56;;;0.01;77.75
16821;BME280;8527;49.740;6.604;2023-01-28T23:50:26;101096.63;;;0.12;78.27
16821;BME280;8527;49.740;6.604;2023-01-28T23:55:24;101098.09;;;0.18;77.63
